sensor_id;sensor_type;location;lat;lon;timestamp;pressure;altitude;pressure_sealevel;temperature;humidity
19672;BME280;9983;51.114;13.788;2023-05-22T00:04:21;99388.59;;;19.97;75.67
19672;BME280;9983;51.114;13.788;2023-05-22T00:09:23;99385.88;;;19.97;75.97
19672;BME280;9983;51.114;13.788;2023-05-22T00:14:23;99384.22;;;19.96;75.31
19672;BME280;9983;51.114;13.788;2023-05-22T00:19:23;99386.81;;;19.67;77.58
19672;BME280;9983;51.114;13.788;2023-05-22T00:24:24;99372.16;;;19.68;77.78
19672;BME280;9983;51.114;13.788;2023-05-22T00:29:24;99374.53;;;19.53;79.03
19672;BME280;9983;51.114;13.788;2023-05-22T00:34:25;99365.50;;;19.41;80.78
19672;BME280;9983;51.114;13.788;2023-05-22T00:39:25;99370.88;;;19.18;81.55
19672;BME280;9983;51.114;13.788;2023-05-22T00:44:25;99362.19;;;19.39;79.87
19672;BME280;9983;51.114;13.788;2023-05-22T00:49:26;99360.25;;;18.75;83.74
19672;BME280;9983;51.114;13.788;2023-05-22T00:54:27;99363.91;;;19.10;82.17
19672;BME280;9983;51.114;13.788;2023-05-22T00:59:28;99352.19;;;19.10;81.76
19672;BME280;9983;51.114;13.788;2023-05-22T01:04:28;99362.28;;;18.79;84.30
19672;BME280;9983;51.114;13.788;2023-05-22T01:09:32;99366.78;;;18.85;83.95
19672;BME280;9983;51.114;13.788;2023-05-22T01:15:02;99365.78;;;18.68;84.90
19672;BME280;9983;51.114;13.788;2023-05-22T01:20:37;99373.34;;;18.66;85.12
19672;BME280;9983;51.114;13.788;2023-05-22T01:26:12;99373.47;;;18.53;84.64
19672;BME280;9983;51.114;13.788;2023-05-22T01:31:25;99375.75;;;18.38;85.06
19672;BME280;9983;51.114;13.788;2023-05-22T01:36:30;99376.19;;;18.35;85.14
19672;BME280;9983;51.114;13.788;2023-05-22T01:41:32;99378.78;;;18.30;85.25
19672;BME280;9983;51.114;13.788;2023-05-22T01:46:33;99376.22;;;17.98;87.03
19672;BME280;9983;51.114;13.788;2023-05-22T01:56:59;99371.91;;;17.66;89.53
19672;BME280;9983;51.114;13.788;2023-05-22T02:02:05;99372.13;;;17.89;88.37
19672;BME280;9983;51.114;13.788;2023-05-22T02:07:10;99372.25;;;17.76;89.34
19672;BME280;9983;51.114;13.788;2023-05-22T02:12:11;99368.69;;;17.51;90.78
19672;BME280;9983;51.114;13.788;2023-05-22T02:17:12;99372.47;;;17.50;90.66
19672;BME280;9983;51.114;13.788;2023-05-22T02:22:13;99369.03;;;17.61;89.68
19672;BME280;9983;51.114;13.788;2023-05-22T02:27:13;99363.56;;;17.42;90.69
19672;BME280;9983;51.114;13.788;2023-05-22T02:32:13;99360.41;;;17.45;90.64
19672;BME280;9983;51.114;13.788;2023-05-22T02:37:14;99349.19;;;17.17;93.89
19672;BME280;9983;51.114;13.788;2023-05-22T02:42:15;99346.66;;;17.72;89.46
19672;BME280;9983;51.114;13.788;2023-05-22T02:47:15;99351.91;;;17.67;89.61
19672;BME280;9983;51.114;13.788;2023-05-22T02:52:15;99338.53;;;17.72;89.62
19672;BME280;9983;51.114;13.788;2023-05-22T02:57:16;99343.94;;;17.72;89.06
19672;BME280;9983;51.114;13.788;2023-05-22T03:02:16;99337.16;;;17.63;90.19
19672;BME280;9983;51.114;13.788;2023-05-22T03:07:17;99332.63;;;17.75;89.43
19672;BME280;9983;51.114;13.788;2023-05-22T03:12:19;99337.75;;;17.65;90.13
19672;BME280;9983;51.114;13.788;2023-05-22T03:17:19;99338.59;;;17.59;90.69
19672;BME280;9983;51.114;13.788;2023-05-22T03:22:19;99335.50;;;17.62;90.98
19672;BME280;9983;51.114;13.788;2023-05-22T03:27:20;99325.66;;;17.61;90.89
19672;BME280;9983;51.114;13.788;2023-05-22T03:32:20;99325.13;;;17.52;91.13
19672;BME280;9983;51.114;13.788;2023-05-22T03:37:20;99327.13;;;17.63;90.52
19672;BME280;9983;51.114;13.788;2023-05-22T03:42:21;99326.09;;;17.58;91.46
19672;BME280;9983;51.114;13.788;2023-05-22T03:47:21;99325.63;;;17.67;90.67
19672;BME280;9983;51.114;13.788;2023-05-22T03:52:21;99323.75;;;17.86;89.75
19672;BME280;9983;51.114;13.788;2023-05-22T03:57:22;99323.44;;;17.76;91.08
19672;BME280;9983;51.114;13.788;2023-05-22T04:02:22;99318.41;;;17.79;90.58
19672;BME280;9983;51.114;13.788;2023-05-22T04:07:25;99322.41;;;17.95;89.72
19672;BME280;9983;51.114;13.788;2023-05-22T04:12:25;99320.66;;;18.01;90.29
19672;BME280;9983;51.114;13.788;2023-05-22T04:17:30;99323.88;;;18.28;88.54
19672;BME280;9983;51.114;13.788;2023-05-22T04:22:31;99327.94;;;18.37;88.74
19672;BME280;9983;51.114;13.788;2023-05-22T04:27:32;99330.53;;;18.32;88.38
19672;BME280;9983;51.114;13.788;2023-05-22T04:32:33;99318.28;;;18.59;87.60
19672;BME280;9983;51.114;13.788;2023-05-22T04:37:35;99322.81;;;18.65;87.66
19672;BME280;9983;51.114;13.788;2023-05-22T04:42:36;99331.06;;;18.70;87.61
19672;BME280;9983;51.114;13.788;2023-05-22T04:47:37;99332.19;;;18.92;87.33
19672;BME280;9983;51.114;13.788;2023-05-22T04:52:40;99324.13;;;19.16;85.99
19672;BME280;9983;51.114;13.788;2023-05-22T04:57:40;99322.69;;;19.25;86.50
19672;BME280;9983;51.114;13.788;2023-05-22T05:02:43;99329.34;;;19.52;85.05
19672;BME280;9983;51.114;13.788;2023-05-22T05:07:44;99320.38;;;19.63;84.95
19672;BME280;9983;51.114;13.788;2023-05-22T05:12:44;99323.91;;;19.99;82.82
19672;BME280;9983;51.114;13.788;2023-05-22T05:17:44;99326.94;;;20.14;80.56
19672;BME280;9983;51.114;13.788;2023-05-22T05:22:45;99333.03;;;20.44;79.82
19672;BME280;9983;51.114;13.788;2023-05-22T05:27:45;99321.84;;;20.58;78.79
19672;BME280;9983;51.114;13.788;2023-05-22T05:32:46;99322.84;;;20.68;78.48
19672;BME280;9983;51.114;13.788;2023-05-22T05:37:46;99327.84;;;20.88;77.68
19672;BME280;9983;51.114;13.788;2023-05-22T05:42:46;99342.66;;;20.64;81.08
19672;BME280;9983;51.114;13.788;2023-05-22T05:47:46;99341.75;;;21.03;77.13
19672;BME280;9983;51.114;13.788;2023-05-22T05:52:47;99341.75;;;21.03;78.78
19672;BME280;9983;51.114;13.788;2023-05-22T05:57:47;99335.69;;;21.30;78.33
19672;BME280;9983;51.114;13.788;2023-05-22T06:02:47;99332.13;;;21.46;76.38
19672;BME280;9983;51.114;13.788;2023-05-22T06:07:47;99334.19;;;21.55;74.10
19672;BME280;9983;51.114;13.788;2023-05-22T06:12:48;99318.94;;;21.76;75.27
19672;BME280;9983;51.114;13.788;2023-05-22T06:17:48;99327.22;;;21.81;73.02
19672;BME280;9983;51.114;13.788;2023-05-22T06:22:49;99321.91;;;21.91;69.10
19672;BME280;9983;51.114;13.788;2023-05-22T06:27:50;99325.34;;;22.04;67.26
19672;BME280;9983;51.114;13.788;2023-05-22T06:32:50;99322.81;;;22.19;66.14
19672;BME280;9983;51.114;13.788;2023-05-22T06:37:51;99322.38;;;22.27;64.97
19672;BME280;9983;51.114;13.788;2023-05-22T06:42:52;99321.03;;;22.51;64.02
19672;BME280;9983;51.114;13.788;2023-05-22T06:47:52;99320.03;;;22.57;62.47
19672;BME280;9983;51.114;13.788;2023-05-22T06:52:53;99319.75;;;22.81;63.06
19672;BME280;9983;51.114;13.788;2023-05-22T06:57:53;99319.75;;;22.81;62.20
19672;BME280;9983;51.114;13.788;2023-05-22T07:02:53;99320.50;;;23.03;60.83
19672;BME280;9983;51.114;13.788;2023-05-22T07:07:53;99316.38;;;23.32;57.52
19672;BME280;9983;51.114;13.788;2023-05-22T07:12:54;99317.44;;;23.63;55.63
19672;BME280;9983;51.114;13.788;2023-05-22T07:17:54;99311.81;;;23.80;54.97
19672;BME280;9983;51.114;13.788;2023-05-22T07:22:55;99304.84;;;24.09;55.17
19672;BME280;9983;51.114;13.788;2023-05-22T07:27:57;99299.50;;;24.40;52.46
19672;BME280;9983;51.114;13.788;2023-05-22T07:32:57;99297.59;;;24.45;52.42
19672;BME280;9983;51.114;13.788;2023-05-22T07:37:57;99312.16;;;24.51;50.96
19672;BME280;9983;51.114;13.788;2023-05-22T07:42:58;99307.84;;;24.75;48.20
19672;BME280;9983;51.114;13.788;2023-05-22T07:47:58;99312.22;;;24.81;47.75
19672;BME280;9983;51.114;13.788;2023-05-22T07:53:00;99299.69;;;25.01;47.37
19672;BME280;9983;51.114;13.788;2023-05-22T07:58:01;99299.13;;;25.24;47.15
19672;BME280;9983;51.114;13.788;2023-05-22T08:03:03;99288.13;;;25.44;46.21
19672;BME280;9983;51.114;13.788;2023-05-22T08:08:03;99288.69;;;25.51;44.26
19672;BME280;9983;51.114;13.788;2023-05-22T08:13:03;99284.84;;;25.67;42.97
19672;BME280;9983;51.114;13.788;2023-05-22T08:18:06;99291.91;;;25.94;45.37
19672;BME280;9983;51.114;13.788;2023-05-22T08:23:07;99288.00;;;26.05;43.60
19672;BME280;9983;51.114;13.788;2023-05-22T08:28:07;99283.66;;;25.89;43.95
19672;BME280;9983;51.114;13.788;2023-05-22T08:33:07;99287.53;;;25.78;43.81
19672;BME280;9983;51.114;13.788;2023-05-22T08:38:08;99281.38;;;26.26;41.84
19672;BME280;9983;51.114;13.788;2023-05-22T08:43:08;99276.50;;;25.98;43.52
19672;BME280;9983;51.114;13.788;2023-05-22T08:48:11;99281.97;;;26.03;44.49
19672;BME280;9983;51.114;13.788;2023-05-22T08:53:14;99276.59;;;25.57;43.78
19672;BME280;9983;51.114;13.788;2023-05-22T08:58:15;99272.13;;;25.92;43.49
19672;BME280;9983;51.114;13.788;2023-05-22T09:03:16;99270.19;;;25.97;44.39
19672;BME280;9983;51.114;13.788;2023-05-22T09:08:17;99265.78;;;26.01;43.47
19672;BME280;9983;51.114;13.788;2023-05-22T09:13:27;99264.19;;;26.50;43.26
19672;BME280;9983;51.114;13.788;2023-05-22T09:18:28;99263.03;;;26.61;43.38
19672;BME280;9983;51.114;13.788;2023-05-22T09:23:29;99269.41;;;26.95;44.34
19672;BME280;9983;51.114;13.788;2023-05-22T09:28:33;99259.31;;;26.80;43.33
19672;BME280;9983;51.114;13.788;2023-05-22T09:33:35;99266.94;;;27.28;42.51
19672;BME280;9983;51.114;13.788;2023-05-22T09:38:36;99264.28;;;27.46;40.97
19672;BME280;9983;51.114;13.788;2023-05-22T09:43:36;99262.88;;;27.49;41.22
19672;BME280;9983;51.114;13.788;2023-05-22T09:48:36;99268.78;;;27.66;40.78
19672;BME280;9983;51.114;13.788;2023-05-22T09:53:38;99268.50;;;27.91;38.96
19672;BME280;9983;51.114;13.788;2023-05-22T09:58:41;99259.66;;;27.94;38.43
19672;BME280;9983;51.114;13.788;2023-05-22T10:03:46;99260.16;;;28.20;38.72
19672;BME280;9983;51.114;13.788;2023-05-22T10:08:51;99260.97;;;27.78;39.39
19672;BME280;9983;51.114;13.788;2023-05-22T10:13:53;99251.94;;;27.44;38.16
19672;BME280;9983;51.114;13.788;2023-05-22T10:18:55;99251.41;;;27.37;39.34
19672;BME280;9983;51.114;13.788;2023-05-22T10:23:56;99248.81;;;26.93;40.94
19672;BME280;9983;51.114;13.788;2023-05-22T10:29:02;99241.53;;;27.36;40.39
19672;BME280;9983;51.114;13.788;2023-05-22T10:34:07;99245.19;;;27.60;37.46
19672;BME280;9983;51.114;13.788;2023-05-22T10:44:27;99241.50;;;27.93;37.82
19672;BME280;9983;51.114;13.788;2023-05-22T10:49:28;99242.09;;;28.52;36.17
19672;BME280;9983;51.114;13.788;2023-05-22T10:54:44;99236.66;;;29.03;34.92
19672;BME280;9983;51.114;13.788;2023-05-22T10:59:46;99228.59;;;29.53;34.82
19672;BME280;9983;51.114;13.788;2023-05-22T11:04:47;99221.41;;;30.34;33.72
19672;BME280;9983;51.114;13.788;2023-05-22T11:09:47;99227.25;;;30.32;31.94
19672;BME280;9983;51.114;13.788;2023-05-22T11:14:58;99211.06;;;30.75;31.77
19672;BME280;9983;51.114;13.788;2023-05-22T11:20:02;99207.41;;;30.66;31.53
19672;BME280;9983;51.114;13.788;2023-05-22T11:25:18;99214.34;;;30.77;31.16
19672;BME280;9983;51.114;13.788;2023-05-22T11:30:19;99215.00;;;30.47;32.45
19672;BME280;9983;51.114;13.788;2023-05-22T11:35:20;99206.41;;;31.29;31.05
19672;BME280;9983;51.114;13.788;2023-05-22T11:40:22;99196.03;;;32.91;29.74
19672;BME280;9983;51.114;13.788;2023-05-22T11:45:26;99186.03;;;34.01;28.81
19672;BME280;9983;51.114;13.788;2023-05-22T11:50:26;99177.94;;;35.69;26.73
19672;BME280;9983;51.114;13.788;2023-05-22T11:55:26;99177.44;;;36.16;25.42
19672;BME280;9983;51.114;13.788;2023-05-22T12:00:27;99189.84;;;37.10;24.48
19672;BME280;9983;51.114;13.788;2023-05-22T12:05:30;99187.53;;;36.84;24.39
19672;BME280;9983;51.114;13.788;2023-05-22T12:10:31;99176.47;;;37.47;24.42
19672;BME280;9983;51.114;13.788;2023-05-22T12:15:31;99166.09;;;37.95;23.70
19672;BME280;9983;51.114;13.788;2023-05-22T12:20:31;99159.38;;;38.15;23.30
19672;BME280;9983;51.114;13.788;2023-05-22T12:25:34;99160.66;;;38.02;23.16
19672;BME280;9983;51.114;13.788;2023-05-22T12:30:40;99154.81;;;38.26;22.66
19672;BME280;9983;51.114;13.788;2023-05-22T12:35:40;99147.91;;;38.40;22.43
19672;BME280;9983;51.114;13.788;2023-05-22T12:40:41;99155.75;;;39.07;21.75
19672;BME280;9983;51.114;13.788;2023-05-22T12:45:41;99151.75;;;38.31;21.99
19672;BME280;9983;51.114;13.788;2023-05-22T12:50:43;99146.44;;;38.84;22.17
19672;BME280;9983;51.114;13.788;2023-05-22T12:55:43;99143.63;;;39.03;21.76
19672;BME280;9983;51.114;13.788;2023-05-22T13:00:44;99134.00;;;39.24;21.51
19672;BME280;9983;51.114;13.788;2023-05-22T13:05:44;99137.41;;;39.59;20.87
19672;BME280;9983;51.114;13.788;2023-05-22T13:10:44;99133.22;;;38.27;22.55
19672;BME280;9983;51.114;13.788;2023-05-22T13:15:44;99125.59;;;39.24;21.73
19672;BME280;9983;51.114;13.788;2023-05-22T13:20:45;99122.09;;;39.07;21.38
19672;BME280;9983;51.114;13.788;2023-05-22T13:25:45;99127.63;;;39.27;20.83
19672;BME280;9983;51.114;13.788;2023-05-22T13:30:45;99121.38;;;39.60;20.69
19672;BME280;9983;51.114;13.788;2023-05-22T13:35:45;99120.09;;;39.31;20.67
19672;BME280;9983;51.114;13.788;2023-05-22T13:40:46;99110.97;;;39.60;20.20
19672;BME280;9983;51.114;13.788;2023-05-22T13:45:46;99094.59;;;39.62;20.01
19672;BME280;9983;51.114;13.788;2023-05-22T13:50:46;99103.38;;;40.43;19.49
19672;BME280;9983;51.114;13.788;2023-05-22T13:55:46;99105.44;;;40.20;19.76
19672;BME280;9983;51.114;13.788;2023-05-22T14:00:47;99087.44;;;38.96;21.11
19672;BME280;9983;51.114;13.788;2023-05-22T14:05:47;99088.94;;;40.45;19.11
19672;BME280;9983;51.114;13.788;2023-05-22T14:10:47;99091.63;;;40.68;18.84
19672;BME280;9983;51.114;13.788;2023-05-22T14:15:48;99092.03;;;40.36;19.51
19672;BME280;9983;51.114;13.788;2023-05-22T14:20:48;99079.44;;;40.56;19.41
19672;BME280;9983;51.114;13.788;2023-05-22T14:25:48;99075.69;;;40.79;18.63
19672;BME280;9983;51.114;13.788;2023-05-22T14:30:49;99068.06;;;40.42;19.78
19672;BME280;9983;51.114;13.788;2023-05-22T14:35:49;99071.50;;;39.46;19.93
19672;BME280;9983;51.114;13.788;2023-05-22T14:40:50;99070.59;;;40.54;19.56
19672;BME280;9983;51.114;13.788;2023-05-22T14:45:51;99080.00;;;39.79;20.40
19672;BME280;9983;51.114;13.788;2023-05-22T14:50:51;99066.63;;;39.43;20.15
19672;BME280;9983;51.114;13.788;2023-05-22T14:55:54;99056.94;;;39.90;20.04
19672;BME280;9983;51.114;13.788;2023-05-22T15:00:54;99061.00;;;39.96;19.32
19672;BME280;9983;51.114;13.788;2023-05-22T15:05:55;99064.22;;;40.58;18.83
19672;BME280;9983;51.114;13.788;2023-05-22T15:10:56;99051.44;;;41.04;18.64
19672;BME280;9983;51.114;13.788;2023-05-22T15:15:57;99054.97;;;40.94;18.67
19672;BME280;9983;51.114;13.788;2023-05-22T15:20:57;99048.53;;;40.56;18.99
19672;BME280;9983;51.114;13.788;2023-05-22T15:25:57;99040.75;;;41.20;17.86
19672;BME280;9983;51.114;13.788;2023-05-22T15:30:57;99039.31;;;39.93;18.70
19672;BME280;9983;51.114;13.788;2023-05-22T15:35:58;99040.56;;;39.95;17.84
19672;BME280;9983;51.114;13.788;2023-05-22T15:40:58;99038.44;;;40.18;17.78
19672;BME280;9983;51.114;13.788;2023-05-22T15:45:58;99024.88;;;39.91;17.66
19672;BME280;9983;51.114;13.788;2023-05-22T15:50:59;99033.84;;;39.47;18.24
19672;BME280;9983;51.114;13.788;2023-05-22T15:55:59;99020.69;;;39.28;18.14
19672;BME280;9983;51.114;13.788;2023-05-22T16:01:00;99019.84;;;37.98;19.23
19672;BME280;9983;51.114;13.788;2023-05-22T16:06:00;99012.22;;;36.66;20.62
19672;BME280;9983;51.114;13.788;2023-05-22T16:11:01;99013.38;;;36.49;21.20
19672;BME280;9983;51.114;13.788;2023-05-22T16:16:01;99010.31;;;35.34;21.99
19672;BME280;9983;51.114;13.788;2023-05-22T16:21:04;98995.53;;;34.73;22.41
19672;BME280;9983;51.114;13.788;2023-05-22T16:26:05;98999.59;;;33.47;24.93
19672;BME280;9983;51.114;13.788;2023-05-22T16:31:05;99001.03;;;33.24;25.54
19672;BME280;9983;51.114;13.788;2023-05-22T16:36:06;99000.94;;;33.11;25.01
19672;BME280;9983;51.114;13.788;2023-05-22T16:41:06;98993.19;;;31.81;26.76
19672;BME280;9983;51.114;13.788;2023-05-22T16:46:06;98998.09;;;31.66;27.37
19672;BME280;9983;51.114;13.788;2023-05-22T16:51:07;98999.16;;;31.40;28.19
19672;BME280;9983;51.114;13.788;2023-05-22T16:56:07;98998.25;;;31.05;28.76
19672;BME280;9983;51.114;13.788;2023-05-22T17:01:07;98987.25;;;30.82;29.40
19672;BME280;9983;51.114;13.788;2023-05-22T17:06:07;98979.22;;;30.72;30.20
19672;BME280;9983;51.114;13.788;2023-05-22T17:11:08;98980.06;;;29.97;30.50
19672;BME280;9983;51.114;13.788;2023-05-22T17:16:08;98985.56;;;29.75;31.47
19672;BME280;9983;51.114;13.788;2023-05-22T17:21:08;98980.38;;;29.37;32.30
19672;BME280;9983;51.114;13.788;2023-05-22T17:26:08;98972.06;;;29.24;32.51
19672;BME280;9983;51.114;13.788;2023-05-22T17:31:09;98973.72;;;29.25;32.45
19672;BME280;9983;51.114;13.788;2023-05-22T17:36:09;98970.41;;;28.54;33.70
19672;BME280;9983;51.114;13.788;2023-05-22T17:41:10;98980.41;;;28.37;34.07
19672;BME280;9983;51.114;13.788;2023-05-22T17:46:10;98976.50;;;28.24;34.84
19672;BME280;9983;51.114;13.788;2023-05-22T17:51:10;98970.97;;;28.24;34.77
19672;BME280;9983;51.114;13.788;2023-05-22T17:56:10;98978.56;;;28.32;35.28
19672;BME280;9983;51.114;13.788;2023-05-22T18:01:11;98981.13;;;28.10;35.69
19672;BME280;9983;51.114;13.788;2023-05-22T18:06:11;98977.41;;;28.01;35.68
19672;BME280;9983;51.114;13.788;2023-05-22T18:11:12;98982.13;;;27.63;36.75
19672;BME280;9983;51.114;13.788;2023-05-22T18:16:12;98989.53;;;27.67;36.48
19672;BME280;9983;51.114;13.788;2023-05-22T18:21:13;98979.19;;;27.16;37.17
19672;BME280;9983;51.114;13.788;2023-05-22T18:26:13;98967.38;;;27.16;36.94
19672;BME280;9983;51.114;13.788;2023-05-22T18:31:13;98970.78;;;26.84;37.43
19672;BME280;9983;51.114;13.788;2023-05-22T18:36:13;98959.63;;;26.47;37.95
19672;BME280;9983;51.114;13.788;2023-05-22T18:41:14;98970.13;;;26.44;38.17
19672;BME280;9983;51.114;13.788;2023-05-22T18:46:14;98976.84;;;26.57;37.54
19672;BME280;9983;51.114;13.788;2023-05-22T18:51:14;98965.41;;;26.16;38.85
19672;BME280;9983;51.114;13.788;2023-05-22T18:56:15;98978.22;;;25.97;38.88
19672;BME280;9983;51.114;13.788;2023-05-22T19:01:16;98973.88;;;25.91;39.45
19672;BME280;9983;51.114;13.788;2023-05-22T19:06:16;98979.03;;;25.53;40.24
19672;BME280;9983;51.114;13.788;2023-05-22T19:11:17;98977.31;;;25.73;39.98
19672;BME280;9983;51.114;13.788;2023-05-22T19:16:18;98985.16;;;25.40;40.54
19672;BME280;9983;51.114;13.788;2023-05-22T19:21:18;98987.72;;;25.21;40.63
19672;BME280;9983;51.114;13.788;2023-05-22T19:26:18;98993.75;;;24.34;42.65
19672;BME280;9983;51.114;13.788;2023-05-22T19:31:18;98997.53;;;24.63;42.54
19672;BME280;9983;51.114;13.788;2023-05-22T19:36:19;98998.63;;;24.67;42.62
19672;BME280;9983;51.114;13.788;2023-05-22T19:41:19;98999.19;;;24.44;43.86
19672;BME280;9983;51.114;13.788;2023-05-22T19:46:21;98997.03;;;24.20;44.77
19672;BME280;9983;51.114;13.788;2023-05-22T19:51:22;98997.56;;;24.02;45.07
19672;BME280;9983;51.114;13.788;2023-05-22T19:56:22;98997.59;;;23.92;46.14
19672;BME280;9983;51.114;13.788;2023-05-22T20:01:22;99003.47;;;23.43;48.34
19672;BME280;9983;51.114;13.788;2023-05-22T20:06:22;99009.50;;;23.45;49.19
19672;BME280;9983;51.114;13.788;2023-05-22T20:11:23;99003.34;;;22.98;50.65
19672;BME280;9983;51.114;13.788;2023-05-22T20:16:23;99006.13;;;23.13;48.19
19672;BME280;9983;51.114;13.788;2023-05-22T20:21:24;99008.38;;;23.31;47.86
19672;BME280;9983;51.114;13.788;2023-05-22T20:26:24;99009.94;;;23.12;48.06
19672;BME280;9983;51.114;13.788;2023-05-22T20:31:25;99005.50;;;22.91;49.96
19672;BME280;9983;51.114;13.788;2023-05-22T20:36:25;99002.75;;;22.91;49.27
19672;BME280;9983;51.114;13.788;2023-05-22T20:41:25;99002.75;;;22.91;49.00
19672;BME280;9983;51.114;13.788;2023-05-22T20:46:25;98996.63;;;22.74;50.01
19672;BME280;9983;51.114;13.788;2023-05-22T20:51:26;98990.00;;;22.59;50.63
19672;BME280;9983;51.114;13.788;2023-05-22T20:56:31;98998.63;;;22.41;51.81
19672;BME280;9983;51.114;13.788;2023-05-22T21:01:31;98986.88;;;22.41;51.79
19672;BME280;9983;51.114;13.788;2023-05-22T21:06:31;98988.69;;;22.25;52.05
19672;BME280;9983;51.114;13.788;2023-05-22T21:11:32;98986.69;;;22.15;53.41
19672;BME280;9983;51.114;13.788;2023-05-22T21:16:32;98986.97;;;22.14;52.91
19672;BME280;9983;51.114;13.788;2023-05-22T21:21:32;98983.03;;;22.00;53.49
19672;BME280;9983;51.114;13.788;2023-05-22T21:26:32;98977.63;;;21.78;55.15
19672;BME280;9983;51.114;13.788;2023-05-22T21:31:33;98976.00;;;21.50;57.60
19672;BME280;9983;51.114;13.788;2023-05-22T21:36:33;98967.56;;;21.25;59.24
19672;BME280;9983;51.114;13.788;2023-05-22T21:41:33;98964.75;;;20.76;61.12
19672;BME280;9983;51.114;13.788;2023-05-22T21:46:34;98965.03;;;20.96;60.61
19672;BME280;9983;51.114;13.788;2023-05-22T21:51:34;98973.53;;;21.22;57.92
19672;BME280;9983;51.114;13.788;2023-05-22T21:56:35;98969.44;;;20.59;61.77
19672;BME280;9983;51.114;13.788;2023-05-22T22:01:35;98959.97;;;20.83;60.63
19672;BME280;9983;51.114;13.788;2023-05-22T22:06:35;98971.50;;;19.96;64.55
19672;BME280;9983;51.114;13.788;2023-05-22T22:11:36;98964.13;;;20.69;61.66
19672;BME280;9983;51.114;13.788;2023-05-22T22:16:36;98967.88;;;19.91;64.44
19672;BME280;9983;51.114;13.788;2023-05-22T22:21:36;98984.41;;;20.78;58.74
19672;BME280;9983;51.114;13.788;2023-05-22T22:26:37;98978.41;;;20.37;59.60
19672;BME280;9983;51.114;13.788;2023-05-22T22:31:37;98964.41;;;20.51;61.94
19672;BME280;9983;51.114;13.788;2023-05-22T22:36:38;98968.44;;;19.93;66.22
19672;BME280;9983;51.114;13.788;2023-05-22T22:41:39;98966.69;;;19.87;65.87
19672;BME280;9983;51.114;13.788;2023-05-22T22:46:39;98977.56;;;20.37;61.70
19672;BME280;9983;51.114;13.788;2023-05-22T22:51:39;98983.97;;;19.47;67.08
19672;BME280;9983;51.114;13.788;2023-05-22T22:56:40;98968.53;;;19.08;69.56
19672;BME280;9983;51.114;13.788;2023-05-22T23:01:40;98966.09;;;19.23;70.00
19672;BME280;9983;51.114;13.788;2023-05-22T23:06:41;98982.03;;;20.09;63.94
19672;BME280;9983;51.114;13.788;2023-05-22T23:11:41;98970.31;;;19.76;65.95
19672;BME280;9983;51.114;13.788;2023-05-22T23:16:41;98969.88;;;19.22;68.50
19672;BME280;9983;51.114;13.788;2023-05-22T23:21:42;98969.63;;;18.95;70.32
19672;BME280;9983;51.114;13.788;2023-05-22T23:26:42;98942.88;;;19.94;65.88
19672;BME280;9983;51.114;13.788;2023-05-22T23:31:42;98929.97;;;19.39;67.21
19672;BME280;9983;51.114;13.788;2023-05-22T23:36:43;98923.84;;;19.77;64.68
19672;BME280;9983;51.114;13.788;2023-05-22T23:41:43;98931.50;;;19.80;64.98
19672;BME280;9983;51.114;13.788;2023-05-22T23:46:43;98931.91;;;19.89;64.65
19672;BME280;9983;51.114;13.788;2023-05-22T23:51:43;98932.72;;;20.06;63.15
19672;BME280;9983;51.114;13.788;2023-05-22T23:56:43;98927.09;;;19.46;66.35
